NY Terminal Aviation Weather Discussion (AFD) - Prepared: 642 PM EDT THU APR 24 2014
A GUSTY NW FLOW WILL CONTINUE THIS EVE WITH DEEPENING LOW PRES 
TRACKING INTO THE N ATLANTIC. A HIGH PRES RIDGE BUILDS OVER THE 
REGION EARLY FRI...AND OFFSHORE FRI AFTN.

VFR THRU THE TAF PERIOD.

NW WINDS WITH GUSTS TO AROUND 30KT GRADUALLY DIMINISH THRU 00Z. 
WINDS SHOULD REMAIN RIGHT OF 310 MAGNETIC. WINDS CONTINUE TO 
DIMINISH TNGT WITH SPEEDS AOB 10 KT BY 4-6Z. WINDS VEER TO THE SE 
FRI MRNG WITH SPEEDS GENERALLY BLW 10 KT. SLY FLOW 10-15 KT IN THE 
EXTENDED TAFS.

5 Day General Aviation Outlook:

.OUTLOOK FOR 18Z FRIDAY THROUGH TUESDAY...
.FRI AFTN...VFR.
.FRI NIGHT-SAT...MVFR IN RAIN FRI NGT INTO SAT. POCKETS OF MVFR SAT 
AFTN POSSIBLE WITH SHRA.
.SUN-TUE...VFR.


NY Metro Terminal Aviation Weather Summary: (Explanation of Color Coding)
NOTE: All Wind Directions are TRUE (add 13 degrees for magnetic directions). Tail and Crosswind Calculations do account for the magnetic deviation of runways.

Click on the Airport Below for Specific Information at that Terminal

TAF Overview JFK TAF LGA TAF EWR TAF TEB TAF HPN TAF ISP TAF

Jump to AirSpace Impacts Section Condensed "lite" version of SPA page
**************************************************************************************
KJFK Terminal Weather: (Wind Directions Are True, Except Where Noted, ADD 13 degrees for Magnetic)

5MIN KJFK 242240Z 31016G28KT 10SM CLR 16/M14 A2990 30 
     11 200 320/16G28 RMK AO2 PK WND 30028/2235
5MIN KJFK 242235Z 30021G28KT 10SM CLR 16/M14 A2990 30 
     11 200 320/21G28 RMK AO2 PK WND 30028/2235
********************************************
****        MAGNETIC DIRECTIONS         ****
********************************************
KJFK 04/24/2014 22:49:12 GMT 320 22 KT
KJFK 04/24/2014 22:47:12 GMT 310 23 KT
KJFK 04/24/2014 22:45:12 GMT 310 20 KT
KJFK 04/24/2014 22:43:12 GMT 310 16 G26KT
KJFK 04/24/2014 22:41:12 GMT 310 21 KT
KJFK 04/24/2014 22:39:12 GMT 320 20 G29KT
KJFK 04/24/2014 22:37:12 GMT 310 18 KT
KJFK 04/24/2014 22:35:12 GMT 310 21 KT
KJFK 04/24/2014 22:33:12 GMT 310 20 KT
KJFK 04/24/2014 22:31:12 GMT 320 22 KT
SAUS70 KJFK 242200 RRO
METAR KJFK 242151Z 32018G29KT 10SM FEW250 17/M15 A2988 RMK AO2 PK WND
     32033/2133 SLP118 T01671150
FTNA35 KJFK 242039 RRC
KJFK 242030Z 2421/2524 33018G30KT P6SM SKC
     FM250200 33012G18KT P6SM SKC
     FM250400 33009KT P6SM SKC
     FM251200 01005KT P6SM SCT250
     FM251500 14006KT P6SM SCT250
     FM251900 16015KT P6SM SCT100 BKN250
KJFK FCSTER COMMENTS: NO UNSCHEDULED AMENDMENTS EXPECTED.

jfk

JFK Hourly Forecast Temperature (C)

JFK Hourly TMPS
**************************************************************************************
KLGA Terminal Weather: (Wind Directions Are True, Except Where Noted, ADD 13 degrees for Magnetic)

5MIN KLGA 242240Z 31019G24KT 10SM CLR 14/M10 A2989 50 
     17 0 320/19G24 RMK AO2 PK WND 32027/2206
5MIN KLGA 242235Z 31018G23KT 10SM CLR 15/M11 A2989 50 
     16 100 320/18G23 RMK AO2 PK WND 32027/2206
********************************************
****        MAGNETIC DIRECTIONS         ****
********************************************
KLGA 04/24/2014 22:49:59 GMT 340 20 KT
KLGA 04/24/2014 22:47:50 GMT 330 21 KT
KLGA 04/24/2014 22:45:59 GMT 330 23 KT
KLGA 04/24/2014 22:43:59 GMT 330 23 KT
KLGA 04/24/2014 22:41:59 GMT 340 23 KT
KLGA 04/24/2014 22:39:59 GMT 340 23 KT
KLGA 04/24/2014 22:37:58 GMT 330 23 KT
KLGA 04/24/2014 22:35:58 GMT 330 22 KT
KLGA 04/24/2014 22:33:58 GMT 330 19 G26KT
KLGA 04/24/2014 22:32:00 GMT 340 21 G26KT
SAUS70 KLGA 242200
METAR KLGA 242151Z 33015G25KT 10SM FEW250 16/M12 A2988 RMK AO2 PK WND
     33031/2122 SLP117 T01561117
FTUS31 KLGA 242033 AAA
KLGA 242030Z 2421/2518 33017G28KT P6SM SKC
     FM250200 33012G18KT P6SM SKC
     FM250400 33008KT P6SM SKC
     FM251500 14008KT P6SM SCT250
KLGA FCSTER COMMENTS: NO UNSCHEDULED AMENDMENTS EXPECTED. 

lga


**************************************************************************************

KEWR Terminal Weather: (Wind Directions Are True, Except Where Noted, ADD 13 degrees for Magnetic)

5MIN KEWR 242240Z 35025KT 10SM FEW250 16/M14 A2991 30 
     11 200 360/25 RMK AO2 $
5MIN KEWR 242235Z 35025KT 10SM FEW250 16/M14 A2991 30 
     11 200 360/25 RMK AO2 $
********************************************
****        MAGNETIC DIRECTIONS         ****
********************************************
KEWR 04/24/2014 22:49:12 GMT 340 19 KT
KEWR 04/24/2014 22:47:12 GMT 340 16 KT
KEWR 04/24/2014 22:45:12 GMT 350 19 KT
KEWR 04/24/2014 22:43:12 GMT 360 19 KT
KEWR 04/24/2014 22:41:12 GMT 350 20 KT
KEWR 04/24/2014 22:39:12 GMT 340 16 KT
KEWR 04/24/2014 22:37:12 GMT 340 18 KT
KEWR 04/24/2014 22:35:12 GMT 340 19 KT
KEWR 04/24/2014 22:33:12 GMT 340 19 KT
KEWR 04/24/2014 22:31:12 GMT 340 18 KT
SAUS70 KEWR 242200
METAR KEWR 242151Z 35025KT 10SM FEW250 17/M14 A2989 RMK AO2 SLP122
     T01671139 $
FTUS31 KEWR 242033 AAA
KEWR 242030Z 2421/2524 34018G27KT P6SM SKC
     FM250200 34012KT P6SM SKC
     FM251200 01005KT P6SM SKC
     FM251500 12005KT P6SM SCT250
     FM251900 16010KT P6SM SCT100 BKN250
KEWR FCSTER COMMENTS: NO UNSCHEDULED AMENDMENTS EXPECTED. 

ewr
Afternoon EWR Haze Potential Forecast: KEWR Haze Forecast Not Available at This Time
IS NOT AVAILABLE AT THIS TIME


******************************************************************************

KTEB Terminal Weather:
SAUS80 KTEB 242200
METAR KTEB 242151Z 32014G23KT 10SM CLR 17/M10 A2988 RMK AO2 PK WND
     32031/2057 SLP118 T01721100
FTUS31 KTEB 242033 AAA
KTEB 242030Z 2421/2518 31014G24KT P6SM SKC
     FM250000 33012KT P6SM SKC
     FM250300 33005KT P6SM SKC
     FM251500 13005KT P6SM SCT250
KTEB FCSTER COMMENTS: NO UNSCHEDULED AMENDMENTS EXPECTED. 

teb

 


**************************************************************************************

KHPN Terminal Weather:
SAUS70 KHPN 242200 RRA
METAR KHPN 242156Z 31015G25KT 10SM CLR 15/M11 A2986 RMK AO2 PK WND
     34031/2126 SLP114 T01501111
FTUS41 KHPN 242033 AAA
KHPN 242030Z 2421/2518 31018G26KT P6SM SKC
     FM250000 32013KT P6SM SKC
     FM250600 34007KT P6SM SKC
     FM251500 15005KT P6SM SCT250 AMD NOT SKED
KHPN FCSTER COMMENTS: NO UNSCHEDULED AMENDMENTS EXPECTED. 

HPN


******************************************************************************

KISP Terminal Weather:
SAUS70 KISP 242200 RRA
METAR KISP 242156Z 34017G24KT 10SM FEW250 16/M11 A2983 RMK AO2 PK WND
     31028/2122 SLP102 T01611106
FTUS51 KISP 242033 AAA
KISP 242030Z 2421/2518 32020G30KT P6SM SKC
     FM250000 32012KT P6SM SKC
     FM250600 33006KT P6SM SKC
     FM251200 VRB06KT P6SM SCT250
KISP FCSTER COMMENTS: NO UNSCHEDULED AMENDMENTS EXPECTED. 
  
ISP

 


ZNY SWAP Season Information

(ZNY SWAP STATEMENT) (Click for PDF File) (ZNY BRIEFING) (Click for PDF File)

*******************************************************
***        NY AIR ROUTE TRAFFIC CONTROL CENTER      ***
***                DAILY SWAP STATEMENT             ***
*******************************************************
NY AIR ROUTE TRAFFIC CONTROL CENTER
DAILY SWAP STATEMENT
APRIL 24, 2014
SWAP IS NOT EXPECTED

ADDT'L INFO:
AZEZU-PAEPR-HANRI(L453-M201): NO IMPACTS
DITCH: NO IMPACTS.
EAST GATES: NO IMPACTS. 
TOMORROW MORNINGS SWAP OUTLOOK: SWAP IS NOT EXPECTED.
$$
GS






N90 AirSpace Impacts

N90 ZNY Gate TSTM Forecast    SWAP Day One Forecast

SWAP Day One Forecast    SWAP Day Two Outlook

National Collaborative Convective Forecast Product (CCFP) Forecasts (Mar-Oct)


Vertical Wind Profile
Untitled Document